Terminal Aerodrome Forecast
Issued by NWS Cleveland, OH

Home | Current Version | Previous Version | Text Only | Print | Product List | Glossary On
Versions: 1 2 3 4 5 6 7 8 9 10 11 12 13 14 15 16 17 18 19
000
FTUS41 KCLE 311100
TAFTOL
TAF
KTOL 311140Z 3112/0112 25007KT P6SM SKC
      TEMPO 3112/3113 27003KT 4SM BR SCT003
     FM312000 25008KT P6SM BKN045
     FM010000 23003KT P6SM SKC
     FM011000 00000KT 5SM BR SCT120=

USA.gov is the U.S. government's official web portal to all federal, state and local government web resources and services.